Mineral Ridge, Ohio
Current Conditions -  °F | °C
As of 3:51 PM on Tuesday 25 Nov 2014 (Local Time) from KYNG Reporting Station
Overcast Overcast  
Wind Chill: 28°   Ceiling: 2600
Heat Index: 37°   Visibility: 10mi
Dew Point: 25°   Wind: 15mph
Humidity: 62%   Direction: 250°WSW
Pressure: 30.07"   Gusts: 18mph
Location:  41.14°N, 80.77°W
Report Text: KYNG 252051Z 25013G16KT 10SM BKN026 OVC037 03/M04 A3007 RMK AO2 SLP191 T00281039 53018
Loading
Personal Weather Stations






























Interactive Weather Map New forecast layout! Learn more

10-Day Weather Forecast

Advertisements
Track Severe Weather on mobile